Tuesday, October 16, 2018, 10:53 PM GMT
Back to Local

CYYY, Mont Joli, Que.

Location: , , Canada Lat: 48.6
Local Time: 10:53 PM GMT (22:53 GMT) Lon: -68.217
Time Zone: GMT Elev: 157 ft

Show me the last for .
Show Coded

Time T Td Feel RH Dir Speed Gust Alt SLP Vis Weather Sky Remarks
2018-10-16 22:00 37 28 27 69 280° 15 22 29.73 29.74 30 BKN048 None
2018-10-16 21:00 37 27 25 64 280° 21 30 29.70 29.71 30 SCT040 BKN080 None
2018-10-16 20:00 39 28 27 64 260° 24 31 29.68 29.69 30 BKN050 None
2018-10-16 19:00 39 28 26 64 250° 26 41 29.64 29.65 30 BKN041 None
2018-10-16 18:00 39 30 25 69 250° 31 44 29.61 29.62 30 BKN043 None
2018-10-16 17:00 39 30 25 69 250° 35 47 29.58 29.59 30 OVC040 None
2018-10-16 16:00 39 32 26 75 250° 31 40 29.57 29.58 30 BKN040 None
2018-10-16 15:00 41 34 31 75 250° 25 - 29.53 29.54 30 BKN036 Pressure rising rapidly
2018-10-16 14:00 41 36 29 80 250° 23 35 29.46 29.47 30 BKN031 Pressure rising rapidly
2018-10-16 13:00 41 36 29 80 250° 25 38 29.39 29.40 15 BKN028 None
2018-10-16 12:00 39 36 26 86 250° 23 36 29.33 29.33 15 BKN027 Pressure rising rapidly
2018-10-16 11:46 39 36 27 86 240° 21 33 29.31 29.32 15 OVC030 Pressure rising rapidly
2018-10-16 11:00 39 34 26 80 240° 26 41 29.28 29.28 10 -RA OVC022 None
2018-10-16 10:00 41 36 28 80 240° 23 41 29.26 29.27 10 -RA OVC040 None
2018-10-16 09:00 41 36 29 80 230° 24 37 29.25 29.26 10 -RA OVC050 None
2018-10-16 08:23 43 39 31 86 230° 23 39 29.25 29.26 10 -RA OVC028 Pressure rising rapidly
2018-10-16 08:08 43 43 32 100 260° 23 33 29.23 29.24 10 -RA FEW006 OVC015 None
2018-10-16 08:05 43 43 32 100 260° 21 33 29.23 29.24 6 -RA BR SCT006 OVC012 None
2018-10-16 08:00 43 43 32 100 260° 18 31 29.23 29.23 1 -RA BR OVC002 None
2018-10-16 07:00 43 43 40 100 230° 5 - 29.24 29.25 1 -RA BR OVC002 Pressure falling rapidly
2018-10-16 06:34 45 43 40 93 250° 9 - 29.27 29.28 1 -RA BR OVC002 Pressure falling rapidly
2018-10-16 06:00 45 45 40 100 250° 9 - 29.30 29.31 6 -RA BR OVC003 None
2018-10-16 05:00 43 43 39 100 220° 6 - 29.33 29.33 6 -RA BR OVC004 None
2018-10-16 04:41 41 41 39 100 Variable 3 - 29.32 29.33 3 -RA BR OVC003 None
2018-10-16 04:10 43 43 38 100 300° 8 - 29.34 29.35 1 -RA BR BKN008 OVC015 None
2018-10-16 04:00 45 43 43 93 230° 3 - 29.34 29.35 15 -RA OVC015 None
2018-10-16 03:00 45 43 43 93 80° 3 - 29.38 29.39 15 -RA OVC020 Pressure falling rapidly
2018-10-16 02:00 43 43 39 100 60° 6 - 29.44 29.45 15 -RA OVC018 Pressure falling rapidly
2018-10-16 01:00 43 43 37 100 30° 9 - 29.51 29.52 15 -RA OVC015 Pressure falling rapidly
2018-10-16 00:00 45 41 41 87 150° 7 - 29.57 29.58 15 -RA OVC028 None
2018-10-15 23:00 46 41 39 81 170° 10 21 29.67 29.68 15 -RA OVC048 Pressure falling rapidly

Support USWX by starting your Amazon purchase here.